createdAt,value
2017-05-09T00:01:35.485Z,67.10
2017-05-09T00:04:03.984Z,68.20
2017-05-09T00:06:31.700Z,69.70
2017-05-09T00:08:59.425Z,69.10
2017-05-09T00:11:27.551Z,66.90
2017-05-09T00:13:55.270Z,66.70
2017-05-09T00:16:22.992Z,66.40
2017-05-09T00:18:53.333Z,68.00
2017-05-09T00:21:21.052Z,67.60
2017-05-09T00:23:48.772Z,68.90
2017-05-09T00:26:17.313Z,70.00
2017-05-09T00:28:45.036Z,71.30
2017-05-09T00:31:12.758Z,69.40
2017-05-09T00:33:41.254Z,73.00
2017-05-09T00:36:08.992Z,70.10
2017-05-09T00:38:37.461Z,72.00
2017-05-09T00:41:05.208Z,71.50
2017-05-09T00:43:32.948Z,73.50
2017-05-09T00:46:00.681Z,73.50
2017-05-09T00:48:28.445Z,74.70
2017-05-09T00:50:56.173Z,76.20
2017-05-09T00:53:23.897Z,75.90
2017-05-09T00:55:51.642Z,77.70
2017-05-09T00:58:19.360Z,80.80
2017-05-09T01:00:47.104Z,75.80
2017-05-09T01:03:14.868Z,77.10
2017-05-09T01:05:42.595Z,75.50
2017-05-09T01:08:10.311Z,76.70
2017-05-09T01:10:38.696Z,76.80
2017-05-09T01:13:06.416Z,77.10
2017-05-09T01:15:34.139Z,80.40
2017-05-09T01:18:02.637Z,80.00
2017-05-09T01:20:30.741Z,78.80
2017-05-09T01:22:58.486Z,77.90
2017-05-09T01:25:26.508Z,78.80
2017-05-09T01:27:54.229Z,80.60
2017-05-09T01:30:21.956Z,80.60
2017-05-09T01:32:50.471Z,79.50
2017-05-09T01:35:18.219Z,78.00
2017-05-09T01:37:45.945Z,78.60
2017-05-09T01:40:13.712Z,79.40
2017-05-09T01:42:41.432Z,80.20
2017-05-09T01:45:09.155Z,79.60
2017-05-09T01:47:36.902Z,80.20
2017-05-09T01:50:05.377Z,83.80
2017-05-09T01:52:33.133Z,79.30
2017-05-09T01:55:01.168Z,79.00
2017-05-09T01:57:28.891Z,79.30
2017-05-09T01:59:57.365Z,80.80
2017-05-09T02:02:25.983Z,80.30
2017-05-09T02:04:53.704Z,80.80
2017-05-09T02:07:21.427Z,83.60
2017-05-09T02:09:49.175Z,84.50
2017-05-09T02:12:16.907Z,84.60
2017-05-09T02:14:44.640Z,83.80
2017-05-09T02:17:12.403Z,84.00
2017-05-09T02:19:40.212Z,82.70
2017-05-09T02:22:07.948Z,82.00
2017-05-09T02:24:35.700Z,83.70
2017-05-09T02:27:03.421Z,88.90
2017-05-09T02:29:31.181Z,85.80
2017-05-09T02:31:58.953Z,82.20
2017-05-09T02:34:26.676Z,82.50
2017-05-09T02:36:54.396Z,83.30
2017-05-09T02:39:22.239Z,86.40
2017-05-09T02:41:49.957Z,85.60
2017-05-09T02:44:17.680Z,86.40
2017-05-09T02:46:45.693Z,85.30
2017-05-09T02:49:13.420Z,84.30
2017-05-09T02:51:41.135Z,84.90
2017-05-09T02:54:09.629Z,82.70
2017-05-09T02:56:37.351Z,83.10
2017-05-09T02:59:05.088Z,83.80
2017-05-09T03:01:33.296Z,85.50
2017-05-09T03:04:01.752Z,88.00
2017-05-09T03:06:29.487Z,86.90
2017-05-09T03:08:57.456Z,86.60
2017-05-09T03:11:25.220Z,87.20
2017-05-09T03:13:52.940Z,87.50
2017-05-09T03:16:21.454Z,90.40
2017-05-09T03:18:49.176Z,90.10
2017-05-09T03:21:16.896Z,86.40
2017-05-09T03:23:44.647Z,87.30
2017-05-09T03:26:12.376Z,88.30
2017-05-09T03:28:40.103Z,88.50
2017-05-09T03:31:08.400Z,88.40
2017-05-09T03:33:36.108Z,88.90
2017-05-09T03:36:03.820Z,90.00
2017-05-09T03:38:31.900Z,88.40
2017-05-09T03:40:59.619Z,89.30
2017-05-09T03:43:27.349Z,87.70
2017-05-09T03:45:55.858Z,90.00
2017-05-09T03:48:23.588Z,90.50
2017-05-09T03:50:51.308Z,87.90
2017-05-09T03:53:19.045Z,87.90
2017-05-09T03:55:46.789Z,87.20
2017-05-09T03:58:14.519Z,89.50
2017-05-09T04:00:42.275Z,89.90
2017-05-09T04:03:09.993Z,90.50
2017-05-09T04:05:37.728Z,88.00
2017-05-09T04:08:05.990Z,88.60
2017-05-09T04:10:34.143Z,88.80
2017-05-09T04:13:01.864Z,89.50
2017-05-09T04:15:29.984Z,89.00
2017-05-09T04:17:57.704Z,87.70
2017-05-09T04:20:25.428Z,87.70
2017-05-09T04:22:53.908Z,88.10
2017-05-09T04:25:21.652Z,87.30
2017-05-09T04:27:49.376Z,89.10
2017-05-09T04:30:17.599Z,90.00
2017-05-09T04:32:45.325Z,88.40
2017-05-09T04:35:13.057Z,87.50
2017-05-09T04:37:40.925Z,87.80
2017-05-09T04:40:08.645Z,88.00
2017-05-09T04:42:36.386Z,87.00
2017-05-09T04:45:04.929Z,86.70
2017-05-09T04:47:32.669Z,86.00
2017-05-09T04:50:00.387Z,88.70
2017-05-09T04:52:28.441Z,83.70
2017-05-09T04:54:56.160Z,82.20
2017-05-09T04:57:23.880Z,82.90
2017-05-09T04:59:51.763Z,82.30
2017-05-09T05:02:19.528Z,85.00
2017-05-09T05:04:47.279Z,82.10
2017-05-09T05:07:15.040Z,81.20
2017-05-09T05:09:42.781Z,83.20
2017-05-09T05:12:10.502Z,83.30
2017-05-09T05:14:38.580Z,80.80
2017-05-09T05:17:06.300Z,81.40
2017-05-09T05:19:34.016Z,82.80
2017-05-09T05:22:02.805Z,80.90
2017-05-09T05:24:30.528Z,81.60
2017-05-09T05:26:59.349Z,80.80
2017-05-09T05:29:27.091Z,80.40
2017-05-09T05:31:54.817Z,81.30
2017-05-09T05:34:22.562Z,83.10
2017-05-09T05:36:50.312Z,81.70
2017-05-09T05:39:18.801Z,79.60
2017-05-09T05:41:47.264Z,79.20
2017-05-09T05:44:15.107Z,79.70
2017-05-09T05:46:42.832Z,78.50
2017-05-09T05:49:10.549Z,77.50
2017-05-09T05:51:38.312Z,76.60
2017-05-09T05:54:06.037Z,76.20
2017-05-09T05:56:33.754Z,78.50
2017-05-09T05:59:02.756Z,76.30
2017-05-09T06:01:30.476Z,75.50
2017-05-09T06:03:58.202Z,75.50
2017-05-09T06:06:25.952Z,75.50
2017-05-09T06:08:53.689Z,76.10
2017-05-09T06:11:21.412Z,75.50
2017-05-09T06:13:49.164Z,75.80
2017-05-09T06:16:16.891Z,75.70
2017-05-09T06:18:45.395Z,74.00
2017-05-09T06:21:13.240Z,74.50
2017-05-09T06:23:41.705Z,74.50
2017-05-09T06:26:09.427Z,74.50
2017-05-09T06:28:38.156Z,73.20
2017-05-09T06:31:05.884Z,73.70
2017-05-09T06:33:33.599Z,75.40
2017-05-09T06:36:02.124Z,73.70
2017-05-09T06:38:29.848Z,72.60
2017-05-09T06:40:58.308Z,70.60
2017-05-09T06:43:26.048Z,70.50
2017-05-09T06:45:53.789Z,71.70
2017-05-09T06:48:21.507Z,71.30
2017-05-09T06:50:50.005Z,70.20
2017-05-09T06:53:17.737Z,69.30
2017-05-09T06:55:45.480Z,67.40
2017-05-09T06:58:13.468Z,65.50
2017-05-09T07:00:41.196Z,64.80
2017-05-09T07:03:08.916Z,64.50
2017-05-09T07:05:37.888Z,64.40
2017-05-09T07:08:05.604Z,63.60
2017-05-09T07:10:33.330Z,56.50
2017-05-09T07:13:01.821Z,57.30
2017-05-09T07:15:30.284Z,57.40
2017-05-09T07:17:58.784Z,58.90
2017-05-09T07:20:28.596Z,57.70
2017-05-09T07:22:56.324Z,58.90
2017-05-09T07:25:24.045Z,55.60
2017-05-09T07:27:52.372Z,55.50
2017-05-09T07:30:20.535Z,54.30
2017-05-09T07:32:48.250Z,53.80
2017-05-09T07:35:16.139Z,53.80
2017-05-09T07:37:43.859Z,53.70
2017-05-09T07:40:11.578Z,53.90
2017-05-09T07:42:39.915Z,53.80
2017-05-09T07:45:07.632Z,53.20
2017-05-09T07:47:35.347Z,51.90
2017-05-09T07:50:03.118Z,52.60
2017-05-09T07:52:30.932Z,54.80
2017-05-09T07:54:58.663Z,53.90
2017-05-09T07:57:27.281Z,53.10
2017-05-09T07:59:54.999Z,52.70
2017-05-09T08:02:22.720Z,51.30
2017-05-09T08:04:50.473Z,51.50
2017-05-09T08:07:18.205Z,47.50
2017-05-09T08:09:45.956Z,47.60
2017-05-09T08:12:13.700Z,46.10
2017-05-09T08:14:41.440Z,48.00
2017-05-09T08:17:09.196Z,46.70
2017-05-09T08:19:37.685Z,46.30
2017-05-09T08:22:05.429Z,47.20
2017-05-09T08:24:33.152Z,49.30
2017-05-09T08:27:01.266Z,50.50
2017-05-09T08:29:29.068Z,48.50
2017-05-09T08:31:57.601Z,49.00
2017-05-09T08:34:26.094Z,48.20
2017-05-09T08:36:54.568Z,48.50
2017-05-09T08:39:22.296Z,49.40
2017-05-09T08:41:51.128Z,47.60
2017-05-09T08:44:18.855Z,47.50
2017-05-09T08:46:46.605Z,48.40
2017-05-09T08:49:15.444Z,47.40
2017-05-09T08:51:43.172Z,47.10
2017-05-09T08:54:10.901Z,44.90
2017-05-09T08:56:38.659Z,45.40
2017-05-09T08:59:06.387Z,44.80
2017-05-09T09:01:34.132Z,44.80
2017-05-09T09:04:02.736Z,46.30
2017-05-09T09:06:30.473Z,44.40
2017-05-09T09:08:58.208Z,43.20
2017-05-09T09:11:25.996Z,42.30
2017-05-09T09:13:53.736Z,44.30
2017-05-09T09:16:22.593Z,43.30
2017-05-09T09:18:51.059Z,43.60
2017-05-09T09:21:18.794Z,42.70
2017-05-09T09:23:46.520Z,42.70
2017-05-09T09:26:14.258Z,43.90
2017-05-09T09:28:42.003Z,46.00
2017-05-09T09:31:09.752Z,44.20
2017-05-09T09:33:37.491Z,43.90
2017-05-09T09:36:05.224Z,43.30
2017-05-09T09:38:32.951Z,43.40
2017-05-09T09:41:00.681Z,42.80
2017-05-09T09:43:28.428Z,43.20
2017-05-09T09:45:56.156Z,41.10
2017-05-09T09:48:23.920Z,40.50
2017-05-09T09:50:51.647Z,41.60
2017-05-09T09:53:19.380Z,40.30
2017-05-09T09:55:47.120Z,39.90
2017-05-09T09:58:14.877Z,39.90
2017-05-09T10:00:43.348Z,37.20
2017-05-09T10:03:11.075Z,39.10
2017-05-09T10:05:38.799Z,38.00
2017-05-09T10:08:06.960Z,37.50
2017-05-09T10:10:35.437Z,36.40
2017-05-09T10:13:03.203Z,36.80
2017-05-09T10:15:31.964Z,35.80
2017-05-09T10:17:59.704Z,37.90
2017-05-09T10:20:27.430Z,36.80
2017-05-09T10:22:57.020Z,38.20
2017-05-09T10:25:24.745Z,37.20
2017-05-09T10:27:52.476Z,37.50
2017-05-09T10:30:20.276Z,36.70
2017-05-09T10:32:48.017Z,34.90
2017-05-09T10:35:15.745Z,38.30
2017-05-09T10:37:44.273Z,37.50
2017-05-09T10:40:11.995Z,36.80
2017-05-09T10:42:40.461Z,35.90
2017-05-09T10:45:09.439Z,35.00
2017-05-09T10:47:37.164Z,35.90
2017-05-09T10:50:04.885Z,36.40
2017-05-09T10:52:33.409Z,36.70
2017-05-09T10:55:01.162Z,36.90
2017-05-09T10:57:28.892Z,37.20
2017-05-09T10:59:57.980Z,37.80
2017-05-09T11:02:25.704Z,38.60
2017-05-09T11:04:53.428Z,37.20
2017-05-09T11:07:21.924Z,37.50
2017-05-09T11:09:49.664Z,37.40
2017-05-09T11:12:18.129Z,36.20
2017-05-09T11:14:46.212Z,36.20
2017-05-09T11:17:16.116Z,38.00
2017-05-09T11:19:43.869Z,35.70
2017-05-09T11:22:12.788Z,35.30
2017-05-09T11:24:40.507Z,36.00
2017-05-09T11:27:08.234Z,34.80
2017-05-09T11:29:35.985Z,34.40
2017-05-09T11:32:03.710Z,33.90
2017-05-09T11:34:31.462Z,33.60
2017-05-09T11:37:00.169Z,33.90
2017-05-09T11:39:27.896Z,36.00
2017-05-09T11:41:55.624Z,33.60
2017-05-09T11:44:23.388Z,32.80
2017-05-09T11:46:51.124Z,32.60
2017-05-09T11:49:18.856Z,35.50
2017-05-09T11:51:46.656Z,34.10
2017-05-09T11:54:14.380Z,34.60
2017-05-09T11:56:42.101Z,34.10
2017-05-09T11:59:10.971Z,34.70
2017-05-09T12:01:38.700Z,33.20
2017-05-09T12:04:06.685Z,32.70
2017-05-09T12:06:35.496Z,33.00
2017-05-09T12:09:03.230Z,31.70
2017-05-09T12:11:30.956Z,29.90
2017-05-09T12:13:58.727Z,29.80
2017-05-09T12:16:26.452Z,29.40
2017-05-09T12:18:54.916Z,30.00
2017-05-09T12:21:22.688Z,31.30
2017-05-09T12:23:50.412Z,28.60
2017-05-09T12:26:18.140Z,29.20
2017-05-09T12:28:46.167Z,29.40
2017-05-09T12:31:13.896Z,30.90
2017-05-09T12:33:41.616Z,29.20
2017-05-09T12:36:10.132Z,29.40
2017-05-09T12:38:37.855Z,30.30
2017-05-09T12:41:05.576Z,30.30
2017-05-09T12:43:33.327Z,29.20
2017-05-09T12:46:01.052Z,29.70
2017-05-09T12:48:29.550Z,30.80
2017-05-09T12:50:57.283Z,31.80
2017-05-09T12:53:25.000Z,31.70
2017-05-09T12:55:52.719Z,32.50
2017-05-09T12:58:21.216Z,34.50
2017-05-09T13:00:48.988Z,35.70
2017-05-09T13:03:16.985Z,36.10
2017-05-09T13:05:45.775Z,36.40
2017-05-09T13:08:13.689Z,36.50
2017-05-09T13:10:42.156Z,36.80
2017-05-09T13:13:09.884Z,36.70
2017-05-09T13:15:37.620Z,37.00
2017-05-09T13:18:05.361Z,37.90
2017-05-09T13:20:33.100Z,40.60
2017-05-09T13:23:00.832Z,42.90
2017-05-09T13:25:28.573Z,44.50
2017-05-09T13:27:56.331Z,44.90
2017-05-09T13:30:24.075Z,45.70
2017-05-09T13:32:51.911Z,46.30
2017-05-09T13:35:19.642Z,47.00
2017-05-09T13:37:47.382Z,47.00
2017-05-09T13:40:15.151Z,47.90
2017-05-09T13:42:42.888Z,48.00
2017-05-09T13:45:11.385Z,46.70
2017-05-09T13:47:39.864Z,46.00
2017-05-09T13:50:07.611Z,47.90
2017-05-09T13:52:36.732Z,47.00
2017-05-09T13:55:04.463Z,46.60
2017-05-09T13:57:32.210Z,47.30
2017-05-09T14:00:01.225Z,47.10
2017-05-09T14:02:28.965Z,48.00
2017-05-09T14:04:56.704Z,48.00
2017-05-09T14:07:24.444Z,48.00
2017-05-09T14:09:52.168Z,48.10
2017-05-09T14:12:19.893Z,50.00
2017-05-09T14:14:47.617Z,55.40
2017-05-09T14:17:15.364Z,52.20
2017-05-09T14:19:43.093Z,50.70
2017-05-09T14:22:11.166Z,50.30
2017-05-09T14:24:38.905Z,51.40
2017-05-09T14:27:06.632Z,51.40
2017-05-09T14:29:34.803Z,50.60
2017-05-09T14:32:02.532Z,50.30
2017-05-09T14:34:30.264Z,50.50
2017-05-09T14:36:58.040Z,50.50
2017-05-09T14:39:25.773Z,49.90
2017-05-09T14:41:53.655Z,50.40
2017-05-09T14:44:22.200Z,50.80
2017-05-09T14:46:49.920Z,50.50
2017-05-09T14:49:17.660Z,50.70
2017-05-09T14:51:45.407Z,51.10
2017-05-09T14:54:13.140Z,51.80
2017-05-09T14:56:40.886Z,52.10
2017-05-09T14:59:08.655Z,52.10
2017-05-09T15:01:36.384Z,52.50
2017-05-09T15:04:04.120Z,52.30
2017-05-09T15:06:32.604Z,53.00
2017-05-09T15:09:01.079Z,53.60
2017-05-09T15:11:28.814Z,55.20
2017-05-09T15:13:56.556Z,56.30
2017-05-09T15:16:24.337Z,56.90
2017-05-09T15:18:52.064Z,56.90
2017-05-09T15:21:19.795Z,57.10
2017-05-09T15:23:47.861Z,56.70
2017-05-09T15:26:15.593Z,55.80
2017-05-09T15:28:43.366Z,55.80
2017-05-09T15:31:11.091Z,56.30
2017-05-09T15:33:38.833Z,57.60
2017-05-09T15:36:07.304Z,58.30
2017-05-09T15:38:35.773Z,59.50
2017-05-09T15:41:03.515Z,59.20
2017-05-09T15:43:31.387Z,58.30
2017-05-09T15:45:59.117Z,59.30
2017-05-09T15:48:26.845Z,60.30
2017-05-09T15:50:55.319Z,60.50
2017-05-09T15:53:23.054Z,60.60
2017-05-09T15:55:50.804Z,60.90
2017-05-09T15:58:18.537Z,60.80
2017-05-09T16:00:46.567Z,61.20
2017-05-09T16:03:14.332Z,62.50
2017-05-09T16:05:42.060Z,62.60
2017-05-09T16:08:10.173Z,62.70
2017-05-09T16:10:37.899Z,62.60
2017-05-09T16:13:05.623Z,63.20
2017-05-09T16:15:33.387Z,63.50
2017-05-09T16:18:01.123Z,63.60
2017-05-09T16:20:28.864Z,61.60
2017-05-09T16:22:57.472Z,59.10
2017-05-09T16:25:25.948Z,58.20
2017-05-09T16:27:53.673Z,56.10
2017-05-09T16:30:21.808Z,55.30
2017-05-09T16:32:49.547Z,54.10
2017-05-09T16:35:17.290Z,51.20
2017-05-09T16:37:45.065Z,49.40
2017-05-09T16:40:12.784Z,44.50
2017-05-09T16:42:40.512Z,42.80
2017-05-09T16:45:09.392Z,42.40
2017-05-09T16:47:37.116Z,48.20
2017-05-09T16:50:04.841Z,51.80
2017-05-09T16:52:32.996Z,53.00
2017-05-09T16:55:00.763Z,56.20
2017-05-09T16:57:29.245Z,58.00
2017-05-09T16:59:59.976Z,58.50
2017-05-09T17:02:28.437Z,60.80
2017-05-09T17:04:56.160Z,62.50
2017-05-09T17:07:24.529Z,64.30
2017-05-09T17:09:52.264Z,66.50
2017-05-09T17:12:20.728Z,67.50
2017-05-09T17:14:48.469Z,67.00
2017-05-09T17:17:16.220Z,65.10
2017-05-09T17:19:43.948Z,65.20
2017-05-09T17:22:12.462Z,65.20
2017-05-09T17:24:40.200Z,66.20
2017-05-09T17:27:07.933Z,66.30
2017-05-09T17:29:35.688Z,67.20
2017-05-09T17:32:03.409Z,68.30
2017-05-09T17:34:31.149Z,68.00
2017-05-09T17:36:59.287Z,68.40
2017-05-09T17:39:27.012Z,68.20
2017-05-09T17:41:54.744Z,67.70
2017-05-09T17:44:24.940Z,67.90
2017-05-09T17:46:52.725Z,67.80
2017-05-09T17:49:21.180Z,68.10
2017-05-09T17:51:48.948Z,69.00
2017-05-09T17:54:16.672Z,70.00
2017-05-09T17:56:44.392Z,70.80
2017-05-09T17:59:13.264Z,69.90
2017-05-09T18:01:40.984Z,70.40
2017-05-09T18:04:08.709Z,69.70
2017-05-09T18:06:37.533Z,69.70
2017-05-09T18:09:05.252Z,69.70
2017-05-09T18:11:33.708Z,70.20
2017-05-09T18:14:01.428Z,70.50
2017-05-09T18:16:29.149Z,69.70
2017-05-09T18:18:56.872Z,69.70
2017-05-09T18:21:24.600Z,69.60
2017-05-09T18:23:53.059Z,69.80
2017-05-09T18:26:20.780Z,70.40
2017-05-09T18:28:48.558Z,70.30
2017-05-09T18:31:16.296Z,70.90
2017-05-09T18:33:44.045Z,71.30
2017-05-09T18:36:11.797Z,71.50
2017-05-09T18:38:39.533Z,71.60
2017-05-09T18:41:08.260Z,72.40
2017-05-09T18:43:36.026Z,72.40
2017-05-09T18:46:03.751Z,72.90
2017-05-09T18:48:31.496Z,73.70
2017-05-09T18:50:59.245Z,74.60
2017-05-09T18:53:26.969Z,75.90
2017-05-09T18:55:54.705Z,77.10
2017-05-09T18:58:22.444Z,77.30
2017-05-09T19:00:50.189Z,79.00
2017-05-09T19:03:17.909Z,80.90
2017-05-09T19:05:45.648Z,81.70
2017-05-09T19:08:13.393Z,82.20
2017-05-09T19:10:41.115Z,83.20
2017-05-09T19:13:08.868Z,84.90
2017-05-09T19:15:37.324Z,84.70
2017-05-09T19:18:05.085Z,85.00
2017-05-09T19:20:33.277Z,84.90
2017-05-09T19:23:01.737Z,85.10
2017-05-09T19:25:29.460Z,85.40
2017-05-09T19:27:57.577Z,86.30
2017-05-09T19:30:25.329Z,86.90
2017-05-09T19:32:53.049Z,88.10
2017-05-09T19:35:20.797Z,89.20
2017-05-09T19:37:48.528Z,90.50
2017-05-09T19:40:16.293Z,91.50
2017-05-09T19:42:44.882Z,92.00
2017-05-09T19:45:13.339Z,92.40
2017-05-09T19:47:41.062Z,92.70
2017-05-09T19:50:10.123Z,93.10
2017-05-09T19:52:38.586Z,93.00
2017-05-09T19:55:06.304Z,92.70
2017-05-09T19:57:34.052Z,92.20
2017-05-09T20:00:02.802Z,92.60
2017-05-09T20:02:30.520Z,92.10
2017-05-09T20:04:59.601Z,92.60
2017-05-09T20:07:27.363Z,92.70
2017-05-09T20:09:55.084Z,92.60
2017-05-09T20:12:22.860Z,92.90
2017-05-09T20:14:51.344Z,93.30
2017-05-09T20:17:19.805Z,93.20
2017-05-09T20:19:47.686Z,93.00
2017-05-09T20:22:15.420Z,93.10
2017-05-09T20:24:43.143Z,93.30
2017-05-09T20:27:11.280Z,93.70
2017-05-09T20:29:39.005Z,94.00
2017-05-09T20:32:06.720Z,94.60
2017-05-09T20:34:34.465Z,94.80
2017-05-09T20:37:02.205Z,94.80
2017-05-09T20:39:29.934Z,95.10
2017-05-09T20:41:57.658Z,94.90
2017-05-09T20:44:25.384Z,94.90
2017-05-09T20:46:53.104Z,95.00
2017-05-09T20:49:21.566Z,95.00
2017-05-09T20:51:50.075Z,95.00
2017-05-09T20:54:17.793Z,95.30
2017-05-09T20:56:45.517Z,95.30
2017-05-09T20:59:13.239Z,95.50
2017-05-09T21:01:42.341Z,95.10
2017-05-09T21:04:10.807Z,95.20
2017-05-09T21:06:38.522Z,95.20
2017-05-09T21:09:06.240Z,95.50
2017-05-09T21:11:34.757Z,95.20
2017-05-09T21:14:02.481Z,95.10
2017-05-09T21:16:30.205Z,94.70
2017-05-09T21:18:57.920Z,94.60
2017-05-09T21:21:26.418Z,94.80
2017-05-09T21:23:54.217Z,94.90
2017-05-09T21:26:21.956Z,94.70
2017-05-09T21:28:49.673Z,94.90
2017-05-09T21:31:17.393Z,94.30
2017-05-09T21:33:45.117Z,94.20
2017-05-09T21:36:12.841Z,94.30
2017-05-09T21:38:40.564Z,94.60
2017-05-09T21:41:08.285Z,94.80
2017-05-09T21:43:36.005Z,94.50
2017-05-09T21:46:03.735Z,94.40
2017-05-09T21:48:31.500Z,94.40
2017-05-09T21:50:59.217Z,94.50
2017-05-09T21:53:27.428Z,94.40
2017-05-09T21:55:55.895Z,94.60
2017-05-09T21:58:24.006Z,94.80
2017-05-09T22:00:51.752Z,95.20
2017-05-09T22:03:20.215Z,95.80
2017-05-09T22:05:47.960Z,96.00
2017-05-09T22:08:15.680Z,96.30
2017-05-09T22:10:43.415Z,98.00
2017-05-09T22:13:11.880Z,99.40
2017-05-09T22:15:40.072Z,99.90
2017-05-09T22:18:08.545Z,99.90
2017-05-09T22:20:37.007Z,99.90
2017-05-09T22:23:05.807Z,99.90
2017-05-09T22:25:33.524Z,99.90
2017-05-09T22:28:01.247Z,99.90
2017-05-09T22:30:29.708Z,99.90
2017-05-09T22:32:57.425Z,99.90
2017-05-09T22:35:25.140Z,99.90
2017-05-09T22:37:52.898Z,99.90
2017-05-09T22:40:20.616Z,99.90
2017-05-09T22:42:48.352Z,99.90
2017-05-09T22:45:16.497Z,99.90
2017-05-09T22:47:44.216Z,99.90
2017-05-09T22:50:11.941Z,99.90
2017-05-09T22:52:40.811Z,99.90
2017-05-09T22:55:09.072Z,99.90
2017-05-09T22:57:36.796Z,99.90
2017-05-09T23:00:05.292Z,99.90
2017-05-09T23:02:33.004Z,99.90
2017-05-09T23:05:01.459Z,99.90
2017-05-09T23:07:29.544Z,99.90
2017-05-09T23:09:57.262Z,99.90
2017-05-09T23:12:24.984Z,99.90
2017-05-09T23:14:53.468Z,99.90
2017-05-09T23:17:21.194Z,99.90
2017-05-09T23:19:48.927Z,99.90
2017-05-09T23:22:16.683Z,99.90
2017-05-09T23:24:44.400Z,99.90
2017-05-09T23:27:12.117Z,99.90
2017-05-09T23:29:39.872Z,99.90
2017-05-09T23:32:07.592Z,99.90
2017-05-09T23:34:35.333Z,99.90
2017-05-09T23:37:03.424Z,99.90
2017-05-09T23:39:31.142Z,99.90
2017-05-09T23:41:58.866Z,99.90
2017-05-09T23:44:27.544Z,99.90
2017-05-09T23:46:55.260Z,99.90
2017-05-09T23:49:22.988Z,99.90
2017-05-09T23:51:51.479Z,99.90
2017-05-09T23:54:19.196Z,99.90
2017-05-09T23:56:46.932Z,99.90
2017-05-09T23:59:15.557Z,99.90
